Time;durP1;ratioP1;P1;durP2;ratioP2;P2;SDS_P1;SDS_P2;PMS_P1;PMS_P2;Temp;Humidity;BMP_temperature;BMP_pressure;BME280_temperature;BME280_humidity;BME280_pressure;Samples;Min_cycle;Max_cycle;Signal;HPM_P1;HPM_P2
2022/06/14 00:01:15;;;;;;;5.78;3.50;;;;;;;27.97;45.40;100965.22;1772292;80;20990;-52
2022/06/14 00:03:43;;;;;;;3.75;3.45;;;;;;;27.95;45.67;100966.67;1770577;80;21020;-49
2022/06/14 00:06:21;;;;;;;4.00;3.60;;;;;;;27.93;45.92;100963.30;1769067;80;20987;-49
2022/06/14 00:08:48;;;;;;;5.05;3.62;;;;;;;27.94;46.20;100962.81;1668875;86;21125;-51
2022/06/14 00:11:20;;;;;;;5.40;3.70;;;;;;;27.94;46.48;100965.48;1670665;85;21034;-50
2022/06/14 00:13:48;;;;;;;7.25;4.95;;;;;;;27.94;46.87;100965.48;1670951;86;21057;-50
2022/06/14 00:16:15;;;;;;;6.47;3.62;;;;;;;27.93;47.34;100965.97;1670778;85;21049;-49
2022/06/14 00:18:41;;;;;;;3.65;3.40;;;;;;;27.93;47.66;100967.79;1671049;85;21090;-55
2022/06/14 00:21:08;;;;;;;3.72;3.42;;;;;;;27.91;47.95;100960.40;1670949;86;21549;-50
2022/06/14 00:23:37;;;;;;;4.87;3.58;;;;;;;27.89;48.22;100969.05;1671120;86;21054;-51
2022/06/14 00:26:04;;;;;;;5.90;3.33;;;;;;;27.91;48.40;100964.41;1670826;85;21581;-50
2022/06/14 00:28:33;;;;;;;3.92;3.40;;;;;;;27.92;48.25;100966.12;1670816;86;21546;-49
2022/06/14 00:31:04;;;;;;;5.25;3.30;;;;;;;27.94;48.31;100964.15;1670979;86;21049;-53
2022/06/14 00:33:31;;;;;;;5.17;3.62;;;;;;;27.98;48.33;100968.27;1633336;88;21020;-52
2022/06/14 00:36:10;;;;;;;5.60;3.58;;;;;;;27.98;48.69;100962.91;1633072;88;21550;-52
2022/06/14 00:38:37;;;;;;;3.85;3.55;;;;;;;27.96;49.11;100959.54;1633180;88;21066;-50
2022/06/14 00:41:05;;;;;;;4.20;3.90;;;;;;;27.93;49.29;100965.12;1627814;88;21675;-50
2022/06/14 00:43:33;;;;;;;4.12;3.77;;;;;;;27.90;49.33;100956.05;1633362;88;21570;-50
2022/06/14 00:46:14;;;;;;;3.55;3.27;;;;;;;27.90;49.36;100962.73;1633318;88;21514;-51
2022/06/14 00:48:44;;;;;;;5.35;3.65;;;;;;;27.88;49.40;100958.84;1633092;88;21101;-54
2022/06/14 00:51:23;;;;;;;4.08;3.67;;;;;;;27.84;49.49;100950.74;1633346;88;21124;-49
2022/06/14 00:54:08;;;;;;;4.00;3.58;;;;;;;27.82;49.56;100955.39;1607019;89;21152;-50
2022/06/14 00:56:56;;;;;;;4.40;3.40;;;;;;;27.82;49.58;100954.56;1597415;87;21085;-49
2022/06/14 00:59:29;;;;;;;5.47;3.60;;;;;;;27.81;49.54;100955.53;1575755;91;21070;-52
2022/06/14 01:02:09;;;;;;;5.12;3.77;;;;;;;27.80;49.41;100959.20;1547763;92;21597;-50
2022/06/14 01:04:36;;;;;;;7.75;3.40;;;;;;;27.81;49.31;100955.53;1537739;92;21076;-50
2022/06/14 01:07:14;;;;;;;4.67;3.95;;;;;;;27.81;49.18;100959.55;1566276;91;21071;-50
2022/06/14 01:09:56;;;;;;;3.67;3.37;;;;;;;27.80;49.16;100959.20;1560568;92;21531;-50
2022/06/14 01:12:26;;;;;;;3.85;3.50;;;;;;;27.79;49.11;100962.37;1552462;92;21512;-51
2022/06/14 01:15:29;;;;;;;5.80;4.00;;;;;;;27.77;49.01;100959.47;1554440;92;21165;-51
2022/06/14 01:18:02;;;;;;;3.95;3.65;;;;;;;27.73;48.95;100965.59;1532104;94;21071;-49
2022/06/14 01:20:31;;;;;;;5.72;4.00;;;;;;;27.67;48.95;100966.63;1558984;92;21191;-50
2022/06/14 01:22:58;;;;;;;4.60;4.15;;;;;;;27.64;48.92;100969.08;1557099;92;21108;-50
2022/06/14 01:25:26;;;;;;;4.00;3.70;;;;;;;27.62;48.89;100968.86;1557061;92;21121;-50
2022/06/14 01:27:52;;;;;;;3.95;3.52;;;;;;;27.61;48.75;100968.52;1557153;92;21081;-52
2022/06/14 01:30:27;;;;;;;4.30;3.92;;;;;;;27.61;48.67;100964.51;1557265;92;21021;-50
2022/06/14 01:33:04;;;;;;;3.95;3.60;;;;;;;27.63;48.59;100961.20;1557462;92;21025;-50
2022/06/14 01:35:38;;;;;;;3.90;3.60;;;;;;;27.61;48.42;100963.17;1560311;89;21636;-51
2022/06/14 01:38:07;;;;;;;5.42;3.85;;;;;;;27.58;48.46;100960.75;1611042;87;21085;-50
2022/06/14 01:41:07;;;;;;;4.05;3.60;;;;;;;27.54;48.53;100959.34;1590658;88;21070;-49
2022/06/14 01:44:06;;;;;;;4.05;3.65;;;;;;;27.51;48.61;100957.81;1615521;88;21014;-50
2022/06/14 01:46:54;;;;;;;4.42;3.70;;;;;;;27.49;48.74;100965.60;1609004;88;21069;-49
2022/06/14 01:52:54;;;;;;;5.33;4.28;;;;;;;27.39;49.02;100957.05;1600166;89;21568;-50
2022/06/14 01:55:40;;;;;;;5.60;3.58;;;;;;;27.36;49.17;100961.34;1589868;89;21152;-50
2022/06/14 01:58:21;;;;;;;5.50;3.75;;;;;;;27.36;49.20;100958.67;1540897;92;21059;-49
2022/06/14 02:00:54;;;;;;;;;;;;;;;27.40;49.33;100953.90;1508325;93;21673;-52
2022/06/14 02:06:40;;;;;;;4.75;3.95;;;;;;;27.37;49.28;100956.34;1465794;97;21218;-49
2022/06/14 02:09:18;;;;;;;4.95;3.42;;;;;;;27.37;49.48;100957.68;1446509;99;21134;-49
2022/06/14 02:11:45;;;;;;;4.10;3.60;;;;;;;27.37;49.62;100957.68;1428092;100;21175;-50
2022/06/14 02:14:26;;;;;;;3.85;3.47;;;;;;;27.37;49.58;100953.67;1426666;100;22692;-49
2022/06/14 02:17:07;;;;;;;4.25;3.85;;;;;;;27.36;49.63;100956.00;1421763;99;21129;-51
2022/06/14 02:19:48;;;;;;;6.15;3.80;;;;;;;27.36;49.73;100954.67;1405405;101;21143;-50
2022/06/14 02:22:22;;;;;;;5.08;3.60;;;;;;;27.33;49.83;100957.56;1403901;101;21177;-49
2022/06/14 02:24:55;;;;;;;3.92;3.62;;;;;;;27.30;49.96;100964.53;1407501;101;21144;-49
2022/06/14 02:27:33;;;;;;;6.58;3.98;;;;;;;27.28;50.16;100961.15;1398913;102;21115;-49
2022/06/14 02:30:16;;;;;;;4.00;3.62;;;;;;;27.29;50.31;100964.64;1386862;103;21139;-53
2022/06/14 02:32:48;;;;;;;4.55;4.10;;;;;;;27.27;50.56;100960.78;1386191;102;21253;-50
2022/06/14 02:35:22;;;;;;;5.37;3.95;;;;;;;27.27;50.72;100966.61;1379375;103;21630;-50
2022/06/14 02:38:03;;;;;;;5.30;3.90;;;;;;;27.26;50.77;100965.78;1385972;102;21099;-51
2022/06/14 02:40:37;;;;;;;6.05;4.25;;;;;;;27.30;50.81;100965.87;1371022;104;21190;-51
2022/06/14 02:43:30;;;;;;;4.45;4.05;;;;;;;27.32;50.98;100971.92;1367595;103;21651;-51
2022/06/14 02:46:02;;;;;;;4.65;4.25;;;;;;;27.33;51.14;100969.59;1313857;105;21165;-53
2022/06/14 02:48:47;;;;;;;6.47;4.17;;;;;;;27.36;51.22;100972.52;1426933;98;21642;-50
2022/06/14 02:51:29;;;;;;;4.35;3.95;;;;;;;27.37;51.41;100972.37;1465037;96;21171;-51
2022/06/14 02:54:01;;;;;;;5.90;4.80;;;;;;;27.40;51.54;100971.27;1507839;92;21105;-49
2022/06/14 02:56:42;;;;;;;4.45;4.05;;;;;;;27.41;51.78;100975.61;1553424;92;21078;-51
2022/06/14 02:59:14;;;;;;;5.65;4.00;;;;;;;27.44;51.95;100977.18;1547391;91;21530;-52
2022/06/14 03:01:49;;;;;;;5.50;4.53;;;;;;;27.45;52.02;100978.37;1552990;86;21589;-49
2022/06/14 03:04:26;;;;;;;4.28;3.87;;;;;;;27.46;51.86;100981.89;1588904;89;21081;-48
2022/06/14 03:07:07;;;;;;;8.45;4.50;;;;;;;27.49;51.71;100978.97;1525016;93;21060;-50
2022/06/14 03:09:36;;;;;;;6.67;4.03;;;;;;;27.52;51.60;100981.35;1527999;93;21100;-53
2022/06/14 03:12:10;;;;;;;8.83;4.42;;;;;;;27.51;51.43;100980.53;1525232;93;21576;-51
2022/06/14 03:15:12;;;;;;;4.53;4.12;;;;;;;27.55;51.35;100982.43;1528619;93;21143;-52
2022/06/14 03:18:10;;;;;;;4.55;4.10;;;;;;;27.58;51.43;100978.12;1521949;93;21076;-50
2022/06/14 03:20:53;;;;;;;5.95;4.22;;;;;;;27.62;51.55;100980.41;1528290;93;21147;-51
2022/06/14 03:23:47;;;;;;;5.00;4.20;;;;;;;27.65;51.84;100979.29;1558952;90;21090;-48
2022/06/14 03:26:32;;;;;;;7.62;4.50;;;;;;;27.67;51.73;100978.17;1584456;90;21065;-52
2022/06/14 03:29:15;;;;;;;5.20;4.70;;;;;;;27.70;51.93;100980.56;1533905;93;21082;-50
2022/06/14 03:31:53;;;;;;;5.47;4.50;;;;;;;27.75;52.14;100978.81;1533655;93;21047;-53
2022/06/14 03:34:32;;;;;;;4.65;4.22;;;;;;;27.78;52.16;100982.57;1531262;93;21571;-49
2022/06/14 03:37:00;;;;;;;4.83;4.33;;;;;;;27.82;52.11;100983.98;1534068;93;21055;-51
2022/06/14 03:39:34;;;;;;;4.62;4.22;;;;;;;27.87;51.95;100983.06;1533741;93;21071;-51
2022/06/14 03:42:03;;;;;;;5.20;3.92;;;;;;;27.96;51.56;100980.94;1566917;89;21090;-50
2022/06/14 03:44:31;;;;;;;7.40;4.00;;;;;;;28.12;51.36;100986.58;1590361;88;21077;-49
2022/06/14 03:47:16;;;;;;;5.20;3.40;;;;;;;28.40;51.15;100992.41;1593316;89;21067;-51
2022/06/14 03:49:50;;;;;;;3.58;3.33;;;;;;;28.85;50.14;100997.53;1636029;87;21048;-50
2022/06/14 03:52:46;;;;;;;3.83;3.50;;;;;;;29.48;48.55;100997.78;1633831;86;21083;-51
2022/06/14 03:55:37;;;;;;;4.92;3.30;;;;;;;30.16;47.15;100995.05;1631392;87;21135;-50
2022/06/14 03:58:21;;;;;;;3.80;3.50;;;;;;;30.95;45.33;101002.66;1633259;86;21075;-50
2022/06/14 04:00:56;;;;;;;3.60;3.27;;;;;;;31.52;43.75;100999.30;1591631;89;21144;-50
2022/06/14 04:04:13;;;;;;;4.58;3.52;;;;;;;31.92;42.19;100994.02;1561953;92;21113;-49
2022/06/14 04:07:08;;;;;;;4.53;3.98;;;;;;;31.99;41.48;100997.78;1600242;87;21078;-52
2022/06/14 04:09:59;;;;;;;4.92;4.20;;;;;;;31.79;41.49;101001.75;1661630;85;21105;-51
2022/06/14 04:12:43;;;;;;;4.17;3.77;;;;;;;31.55;41.60;101005.67;1664225;85;21061;-49
2022/06/14 04:15:47;;;;;;;5.40;4.60;;;;;;;31.35;42.00;101006.91;1664084;85;21117;-48
2022/06/14 04:18:41;;;;;;;4.95;4.55;;;;;;;31.25;42.33;101002.16;1655596;85;21127;-49
2022/06/14 04:21:38;;;;;;;5.28;4.87;;;;;;;31.05;42.86;101015.48;1658126;86;21089;-51
2022/06/14 04:24:38;;;;;;;9.45;4.67;;;;;;;30.80;43.82;101009.56;1661405;86;21057;-49
2022/06/14 04:27:22;;;;;;;5.17;4.70;;;;;;;30.56;44.34;101009.38;1663788;86;21034;-51
2022/06/14 04:30:20;;;;;;;5.25;4.62;;;;;;;30.32;44.98;101010.84;1663294;86;21109;-50
2022/06/14 04:33:08;;;;;;;5.37;4.87;;;;;;;30.12;45.54;101021.36;1519781;94;21133;-48
2022/06/14 04:35:50;;;;;;;5.17;4.60;;;;;;;29.95;45.93;101023.52;1487731;96;21605;-49
2022/06/14 04:38:28;;;;;;;;;;;;;;;29.81;46.47;101022.69;1545994;91;21553;-48
2022/06/14 04:41:03;;;;;;;5.80;5.30;;;;;;;29.70;46.56;101021.51;1559462;91;20146;-49
2022/06/14 04:43:40;;;;;;;5.10;4.58;;;;;;;29.61;46.53;101026.45;1561529;91;21604;-51
2022/06/14 04:46:16;;;;;;;4.58;4.17;;;;;;;29.55;46.31;101031.06;1561703;91;21002;-51
2022/06/14 04:49:13;;;;;;;4.80;4.25;;;;;;;29.45;46.14;101021.70;1527139;92;21064;-51
2022/06/14 04:51:53;;;;;;;4.78;4.30;;;;;;;29.47;46.17;101025.59;1527446;93;21079;-50
2022/06/14 04:54:30;;;;;;;3.95;3.55;;;;;;;29.44;46.30;101022.70;1525544;94;21595;-54
2022/06/14 04:57:11;;;;;;;5.87;3.85;;;;;;;29.49;46.00;101026.30;1522431;94;21049;-50
2022/06/14 04:59:42;;;;;;;5.62;4.28;;;;;;;29.55;45.91;101023.02;1525932;94;21176;-49
2022/06/14 05:02:33;;;;;;;5.12;4.03;;;;;;;29.62;45.58;101024.09;1521680;94;21067;-55
2022/06/14 05:05:08;;;;;;;4.50;4.08;;;;;;;29.70;45.38;101024.19;1525738;94;21199;-50
2022/06/14 05:07:42;;;;;;;4.30;3.90;;;;;;;29.86;44.64;101021.75;1521857;94;21153;-49
2022/06/14 05:10:23;;;;;;;4.58;3.90;;;;;;;30.01;44.16;101017.55;1564467;90;21062;-51
2022/06/14 05:12:58;;;;;;;3.50;3.20;;;;;;;30.23;43.12;101011.72;1557712;92;21564;-51
2022/06/14 05:15:37;;;;;;;3.72;3.42;;;;;;;30.49;42.52;101011.84;1557346;92;21931;-49
2022/06/14 05:18:11;;;;;;;4.10;3.35;;;;;;;30.79;41.57;101019.98;1544665;92;21571;-50
2022/06/14 05:20:44;;;;;;;5.80;3.52;;;;;;;31.06;40.75;101016.66;1540405;92;21188;-52
2022/06/14 05:23:22;;;;;;;4.00;3.70;;;;;;;31.36;40.79;101018.02;1517434;94;21743;-49
2022/06/14 05:26:19;;;;;;;3.72;3.42;;;;;;;31.68;40.43;101015.48;1474753;96;21653;-53
2022/06/14 05:29:10;;;;;;;5.17;3.50;;;;;;;32.01;38.97;101017.30;1448019;98;21644;-49
2022/06/14 05:31:43;;;;;;;3.90;3.60;;;;;;;32.37;38.39;101025.11;1464805;97;21099;-50
2022/06/14 05:34:29;;;;;;;4.40;4.00;;;;;;;32.58;39.07;101033.05;1466092;97;21736;-53
2022/06/14 05:37:10;;;;;;;4.65;4.25;;;;;;;32.72;39.44;101030.20;1463547;97;21179;-49
2022/06/14 05:39:45;;;;;;;4.40;4.00;;;;;;;32.81;39.69;101031.36;1465061;97;21084;-51
2022/06/14 05:42:20;;;;;;;4.15;3.55;;;;;;;32.85;38.58;101027.84;1487925;96;21076;-50
2022/06/14 05:44:49;;;;;;;3.90;3.60;;;;;;;32.88;37.72;101028.84;1490936;96;21566;-51
2022/06/14 05:47:20;;;;;;;3.20;3.00;;;;;;;32.91;36.92;101038.44;1484800;96;21539;-53
2022/06/14 05:49:52;;;;;;;4.15;3.02;;;;;;;32.95;36.76;101039.28;1487452;96;21062;-50
2022/06/14 05:52:25;;;;;;;3.70;3.40;;;;;;;33.03;36.25;101036.61;1485695;96;21057;-53
2022/06/14 05:55:14;;;;;;;3.98;3.27;;;;;;;33.12;35.56;101032.86;1453408;98;21093;-54
2022/06/14 05:58:00;;;;;;;;;;;;;;;33.19;34.69;101031.17;1452388;98;21138;-52
2022/06/14 06:00:32;;;;;;;5.53;2.98;;;;;;;33.33;34.79;101042.59;1453207;98;20134;-51
2022/06/14 06:03:37;;;;;;;3.85;2.90;;;;;;;33.46;34.58;101040.20;1428405;100;21120;-52
2022/06/14 06:06:12;;;;;;;5.50;3.30;;;;;;;33.64;33.87;101038.13;1480471;96;21123;-50
2022/06/14 06:08:53;;;;;;;4.80;3.15;;;;;;;33.88;33.29;101040.39;1502140;93;21088;-52
2022/06/14 06:11:26;;;;;;;;;;;;;;;34.06;33.50;101046.39;1548996;92;21138;-50
2022/06/14 06:14:14;;;;;;;4.20;3.00;;;;;;;34.20;33.57;101048.33;1563320;90;20122;-50
2022/06/14 06:17:02;;;;;;;4.10;3.70;;;;;;;34.27;34.15;101049.30;1561125;91;21141;-49
2022/06/14 06:19:37;;;;;;;4.65;4.20;;;;;;;34.31;36.59;101061.43;1556731;91;21047;-51
2022/06/14 06:22:19;;;;;;;4.53;4.12;;;;;;;34.36;37.53;101065.77;1558359;91;21550;-51
2022/06/14 06:24:52;;;;;;;5.72;4.45;;;;;;;34.43;35.96;101065.40;1558222;91;21086;-52
2022/06/14 06:27:21;;;;;;;8.53;4.08;;;;;;;34.55;35.85;101065.84;1509525;94;21622;-50
2022/06/14 06:29:52;;;;;;;4.50;4.10;;;;;;;34.73;35.78;101068.56;1488436;96;21170;-52
2022/06/14 06:32:20;;;;;;;5.47;4.65;;;;;;;34.88;35.80;101068.09;1489674;96;21087;-51
2022/06/14 06:34:48;;;;;;;3.87;3.62;;;;;;;35.02;35.56;101065.97;1490832;96;21131;-53
2022/06/14 06:37:34;;;;;;;3.98;3.62;;;;;;;35.13;35.23;101069.59;1490587;96;21544;-50
2022/06/14 06:40:21;;;;;;;3.90;3.60;;;;;;;35.13;34.80;101076.34;1488610;96;21095;-49
2022/06/14 06:43:12;;;;;;;8.38;3.85;;;;;;;35.03;34.74;101067.66;1433403;100;21127;-49
2022/06/14 06:45:43;;;;;;;6.03;3.50;;;;;;;34.77;34.51;101069.88;1414428;101;21632;-49
2022/06/14 06:48:38;;;;;;;4.00;3.65;;;;;;;34.48;34.97;101065.68;1414325;101;21141;-53
2022/06/14 06:51:09;;;;;;;4.10;3.77;;;;;;;34.17;35.40;101075.71;1393728;101;21663;-48
2022/06/14 06:53:43;;;;;;;4.25;3.65;;;;;;;33.84;36.24;101074.16;1389339;102;21196;-50
2022/06/14 06:56:16;;;;;;;3.67;3.40;;;;;;;33.57;36.88;101083.02;1401658;100;21150;-53
2022/06/14 06:59:07;;;;;;;4.90;3.42;;;;;;;33.32;37.08;101077.34;1391988;99;21132;-52
2022/06/14 07:01:41;;;;;;;3.62;3.33;;;;;;;33.07;37.20;101075.70;1451767;98;21108;-51
2022/06/14 07:04:17;;;;;;;4.37;3.58;;;;;;;32.83;37.76;101077.00;1451706;98;21129;-49
2022/06/14 07:06:56;;;;;;;4.08;3.27;;;;;;;32.62;38.61;101080.73;1424571;100;21185;-49
2022/06/14 07:09:38;;;;;;;5.80;3.12;;;;;;;32.47;38.87;101085.93;1428252;100;21133;-50
2022/06/14 07:12:10;;;;;;;4.17;3.75;;;;;;;32.38;39.72;101092.27;1396689;101;21632;-49
2022/06/14 07:14:55;;;;;;;6.17;4.10;;;;;;;32.33;39.36;101091.09;1390682;103;21628;-52
2022/06/14 07:17:32;;;;;;;4.62;3.72;;;;;;;32.25;39.42;101104.54;1391130;103;21152;-50
2022/06/14 07:20:07;;;;;;;5.55;3.95;;;;;;;32.18;39.75;101094.07;1440632;98;21672;-51
2022/06/14 07:22:48;;;;;;;6.35;3.85;;;;;;;32.11;39.50;101097.09;1457325;98;21136;-51
2022/06/14 07:25:32;;;;;;;;;;;;;;;32.02;38.85;101107.84;1505898;95;21059;-52
2022/06/14 07:28:07;;;;;;;5.90;3.92;;;;;;;31.96;39.03;101101.73;1505912;95;20143;-51
2022/06/14 07:30:47;;;;;;;5.80;4.20;;;;;;;31.99;38.92;101100.08;1503908;95;21654;-49
2022/06/14 07:33:17;;;;;;;6.03;5.10;;;;;;;32.05;38.66;101112.88;1511191;95;21100;-49
2022/06/14 07:35:59;;;;;;;5.00;4.50;;;;;;;32.04;39.23;101110.36;1515564;93;21068;-49
2022/06/14 07:38:56;;;;;;;5.33;4.40;;;;;;;32.00;38.99;101112.55;1463852;96;21112;-50
2022/06/14 07:41:41;;;;;;;5.58;4.62;;;;;;;31.94;39.31;101113.16;1443944;98;21577;-52
2022/06/14 07:44:23;;;;;;;5.70;4.45;;;;;;;31.89;39.87;101120.02;1457529;98;21121;-50
2022/06/14 07:46:58;;;;;;;6.83;4.30;;;;;;;31.83;39.81;101122.01;1473046;97;21146;-49
2022/06/14 07:49:48;;;;;;;5.30;4.70;;;;;;;31.80;40.00;101121.82;1505629;95;21114;-49
2022/06/14 07:52:21;;;;;;;6.10;4.40;;;;;;;31.76;40.36;101121.80;1465902;97;21118;-50
2022/06/14 07:54:53;;;;;;;8.20;4.45;;;;;;;31.71;40.26;101117.42;1464569;97;21640;-51
2022/06/14 07:57:25;;;;;;;8.05;4.53;;;;;;;31.70;40.18;101117.06;1467001;96;21158;-49
2022/06/14 08:03:16;;;;;;;8.08;4.58;;;;;;;31.65;39.97;101116.72;1444139;99;21120;-50
2022/06/14 08:05:47;;;;;;;5.05;4.55;;;;;;;31.60;40.13;101118.19;1462396;97;21126;-50
2022/06/14 08:08:20;;;;;;;9.55;4.45;;;;;;;31.52;40.50;101123.02;1460214;97;21098;-50
2022/06/14 08:10:53;;;;;;;5.28;4.78;;;;;;;31.45;41.50;101124.65;1467934;96;21589;-50
2022/06/14 08:13:24;;;;;;;;;;;;;;;31.35;41.82;101133.81;1475194;96;21192;-50
2022/06/14 08:15:55;;;;;;;8.43;4.92;;;;;;;31.25;41.85;101136.59;1465805;97;20119;-49
2022/06/14 08:18:35;;;;;;;5.70;5.10;;;;;;;31.14;42.58;101144.40;1480928;96;21216;-52
2022/06/14 08:21:30;;;;;;;6.60;4.95;;;;;;;31.04;42.97;101144.99;1463735;97;21147;-48
2022/06/14 08:24:06;;;;;;;6.37;4.90;;;;;;;30.98;43.32;101145.61;1471779;96;21072;-50
2022/06/14 08:27:03;;;;;;;5.78;4.58;;;;;;;30.94;42.69;101149.61;1391376;103;21197;-50
2022/06/14 08:29:43;;;;;;;4.85;4.12;;;;;;;30.88;42.62;101151.58;1414115;101;21124;-49
2022/06/14 08:32:45;;;;;;;5.08;4.45;;;;;;;30.88;42.60;101146.69;1397430;103;21607;-49
2022/06/14 08:35:17;;;;;;;6.12;4.67;;;;;;;30.92;42.13;101150.27;1409631;102;21159;-49
2022/06/14 08:38:11;;;;;;;7.97;4.25;;;;;;;30.96;41.82;101149.45;1389177;103;21195;-53
2022/06/14 08:40:57;;;;;;;6.17;4.42;;;;;;;30.96;41.76;101151.64;1382271;100;21616;-51
2022/06/14 08:43:48;;;;;;;5.35;4.45;;;;;;;30.99;41.98;101163.94;1411698;102;21238;-49
2022/06/14 08:46:49;;;;;;;6.65;4.53;;;;;;;30.98;42.22;101166.27;1336344;106;21225;-49
2022/06/14 08:49:59;;;;;;;5.92;4.17;;;;;;;30.98;42.40;101160.89;1317516;108;21183;-56
2022/06/14 08:52:51;;;;;;;8.03;4.20;;;;;;;30.97;42.47;101156.53;1321335;108;21104;-49
2022/06/14 08:55:44;;;;;;;6.83;4.53;;;;;;;30.97;42.79;101167.28;1321149;108;21622;-52
2022/06/14 08:58:54;;;;;;;8.75;3.80;;;;;;;30.97;42.54;101164.59;1300885;109;21665;-49
2022/06/14 09:01:37;;;;;;;5.75;3.70;;;;;;;30.92;42.13;101168.23;1300897;109;21171;-50
2022/06/14 09:04:51;;;;;;;6.78;4.03;;;;;;;30.87;42.84;101173.23;1300681;109;21139;-49
2022/06/14 09:08:01;;;;;;;8.63;3.98;;;;;;;30.80;43.26;101173.45;1300659;109;21233;-52
2022/06/14 09:11:07;;;;;;;5.25;3.70;;;;;;;30.79;43.87;101177.16;1300966;109;21189;-51
2022/06/14 09:13:40;;;;;;;5.97;3.65;;;;;;;30.75;43.07;101190.55;1310376;109;21200;-51
2022/06/14 09:16:32;;;;;;;7.80;4.25;;;;;;;30.75;43.04;101188.69;1301605;108;32823;-49
2022/06/14 09:19:14;;;;;;;4.70;4.00;;;;;;;30.75;42.52;101189.20;1345109;104;21167;-50
2022/06/14 09:22:10;;;;;;;5.17;4.20;;;;;;;30.78;42.13;101194.27;1336180;106;21169;-49
2022/06/14 09:25:05;;;;;;;5.00;3.60;;;;;;;30.72;42.01;101198.91;1450235;98;21104;-51
2022/06/14 09:28:12;;;;;;;5.78;3.65;;;;;;;30.62;41.67;101199.47;1488954;96;21105;-51
2022/06/14 09:31:15;;;;;;;5.30;3.83;;;;;;;30.50;42.18;101199.67;1486542;96;21137;-49
2022/06/14 09:34:19;;;;;;;5.17;3.70;;;;;;;30.40;42.60;101201.56;1539821;92;21161;-49
2022/06/14 09:37:09;;;;;;;4.15;3.42;;;;;;;30.32;43.10;101208.18;1582107;91;21089;-55
2022/06/14 09:39:53;;;;;;;4.40;3.75;;;;;;;30.29;43.36;101204.47;1502405;95;21168;-53
2022/06/14 09:42:40;;;;;;;6.67;3.30;;;;;;;30.30;43.02;101203.46;1502225;95;21066;-51
2022/06/14 09:45:27;;;;;;;5.58;3.72;;;;;;;30.34;42.64;101210.22;1501213;95;21114;-55
2022/06/14 09:48:25;;;;;;;4.15;3.70;;;;;;;30.35;42.52;101209.24;1491519;95;21069;-51
2022/06/14 09:51:33;;;;;;;3.35;3.05;;;;;;;30.35;42.45;101213.27;1502011;95;21610;-50
2022/06/14 09:54:26;;;;;;;6.62;3.47;;;;;;;30.35;42.61;101211.92;1498366;95;21102;-51
2022/06/14 09:57:21;;;;;;;7.62;3.70;;;;;;;30.37;42.26;101201.88;1476906;97;21138;-50
2022/06/14 10:00:02;;;;;;;4.78;3.22;;;;;;;30.42;42.28;101207.63;1486427;96;21114;-50
2022/06/14 10:02:54;;;;;;;7.67;3.25;;;;;;;30.51;42.11;101210.77;1488964;96;21121;-54
2022/06/14 10:05:32;;;;;;;8.03;3.45;;;;;;;30.56;41.50;101200.92;1601620;87;21019;-51
2022/06/14 10:08:30;;;;;;;9.08;3.17;;;;;;;30.62;41.88;101200.32;1642206;87;21570;-52
2022/06/14 10:11:17;;;;;;;8.35;3.35;;;;;;;30.71;41.92;101201.26;1636137;87;21579;-50
2022/06/14 10:14:04;;;;;;;3.33;3.02;;;;;;;30.75;41.74;101203.98;1649327;87;21102;-50
2022/06/14 10:17:15;;;;;;;3.67;3.37;;;;;;;30.78;41.49;101203.66;1648356;86;21645;-49
2022/06/14 10:20:19;;;;;;;5.10;3.12;;;;;;;30.81;41.56;101202.03;1648061;87;21550;-51
2022/06/14 10:23:11;;;;;;;3.22;2.90;;;;;;;30.81;41.88;101206.06;1652996;87;21034;-50
2022/06/14 10:29:25;;;;;;;5.50;3.10;;;;;;;30.74;41.55;101200.94;1607375;89;21068;-52
2022/06/14 10:32:18;;;;;;;3.30;3.00;;;;;;;30.67;41.13;101202.52;1604339;89;21064;-56
2022/06/14 10:35:04;;;;;;;4.12;3.42;;;;;;;30.63;42.08;101203.83;1634445;87;21572;-52
2022/06/14 10:37:52;;;;;;;5.70;3.35;;;;;;;30.59;41.78;101201.09;1681028;85;21581;-49
2022/06/14 10:40:43;;;;;;;5.58;3.20;;;;;;;30.57;41.83;101199.06;1689286;85;21542;-53
2022/06/14 10:43:39;;;;;;;5.78;3.02;;;;;;;30.56;41.47;101197.39;1689669;85;21101;-50
2022/06/14 10:46:14;;;;;;;4.87;3.15;;;;;;;30.55;41.47;101195.19;1689498;85;21026;-53
2022/06/14 10:49:02;;;;;;;6.97;2.83;;;;;;;30.56;41.42;101190.18;1649421;86;21555;-49
2022/06/14 10:51:59;;;;;;;2.75;2.55;;;;;;;30.58;41.77;101193.56;1650493;86;21112;-54
2022/06/14 10:54:40;;;;;;;4.30;2.95;;;;;;;30.59;41.72;101191.70;1652816;86;21537;-49
2022/06/14 10:57:37;;;;;;;3.35;3.00;;;;;;;30.62;41.99;101191.41;1703224;83;21053;-52
2022/06/14 11:00:31;;;;;;;3.47;3.17;;;;;;;30.67;41.70;101191.78;1700590;83;21565;-49
2022/06/14 11:03:36;;;;;;;3.40;2.90;;;;;;;30.71;42.28;101187.83;1670887;85;21034;-51
2022/06/14 11:06:23;;;;;;;5.67;3.25;;;;;;;30.78;41.89;101187.55;1673407;85;21050;-48
2022/06/14 11:09:30;;;;;;;3.40;3.00;;;;;;;30.92;42.13;101177.62;1672565;85;21018;-50
2022/06/14 11:12:33;;;;;;;3.22;2.92;;;;;;;31.04;41.89;101176.39;1667383;85;21059;-51
2022/06/14 11:15:32;;;;;;;5.08;3.45;;;;;;;31.16;41.18;101169.80;1658467;86;21059;-56
2022/06/14 11:18:10;;;;;;;4.62;3.02;;;;;;;31.24;41.32;101167.18;1645015;86;21054;-52
2022/06/14 11:20:46;;;;;;;4.47;2.85;;;;;;;31.30;40.60;101156.61;1605165;87;21555;-53
2022/06/14 11:23:27;;;;;;;9.68;3.35;;;;;;;31.37;40.15;101161.39;1615798;87;21097;-51
2022/06/14 11:26:11;;;;;;;5.42;2.83;;;;;;;31.41;40.05;101160.11;1605200;87;21078;-51
2022/06/14 11:29:04;;;;;;;3.35;2.90;;;;;;;31.46;40.17;101160.47;1604159;87;21038;-51
2022/06/14 11:31:37;;;;;;;5.03;3.27;;;;;;;31.46;39.79;101161.31;1577673;90;21135;-54
2022/06/14 11:34:44;;;;;;;5.67;2.90;;;;;;;31.47;39.75;101160.30;1582351;90;21054;-50
2022/06/14 11:37:39;;;;;;;4.78;2.62;;;;;;;31.48;40.07;101151.24;1585012;90;21546;-49
2022/06/14 11:40:29;;;;;;;3.12;2.77;;;;;;;31.51;40.54;101158.98;1597135;88;21069;-50
2022/06/14 11:43:20;;;;;;;4.85;2.67;;;;;;;31.54;39.84;101161.37;1602891;89;21035;-51
2022/06/14 11:46:00;;;;;;;6.13;2.97;;;;;;;31.56;39.30;101161.20;1631650;87;21097;-51
2022/06/14 11:48:51;;;;;;;5.28;3.10;;;;;;;31.53;39.03;101155.63;1583999;89;21069;-49
2022/06/14 11:51:46;;;;;;;3.33;3.03;;;;;;;31.53;38.95;101144.05;1627270;87;21565;-53
2022/06/14 11:54:47;;;;;;;2.62;2.40;;;;;;;31.55;39.23;101149.59;1604026;89;21033;-51
2022/06/14 11:57:19;;;;;;;4.80;2.60;;;;;;;31.57;38.82;101144.92;1649193;85;21023;-51
2022/06/14 12:00:00;;;;;;;4.85;2.50;;;;;;;31.59;39.00;101144.27;1691269;85;21035;-50
2022/06/14 12:02:53;;;;;;;3.58;2.72;;;;;;;31.62;39.12;101143.08;1596159;89;21124;-54
2022/06/14 12:05:40;;;;;;;3.10;2.45;;;;;;;31.60;39.05;101136.52;1544936;93;21054;-51
2022/06/14 12:08:39;;;;;;;4.62;2.67;;;;;;;31.63;39.13;101144.78;1545078;93;21565;-49
2022/06/14 12:11:25;;;;;;;7.47;2.60;;;;;;;31.66;39.10;101140.41;1545010;93;21133;-50
2022/06/14 12:14:34;;;;;;;2.67;2.37;;;;;;;31.66;39.17;101133.19;1540786;91;21136;-49
2022/06/14 12:17:21;;;;;;;3.17;2.10;;;;;;;31.68;38.39;101132.53;1538562;93;21099;-51
2022/06/14 12:19:53;;;;;;;4.50;2.42;;;;;;;31.71;38.48;101136.75;1483651;96;21103;-50
2022/06/14 12:22:28;;;;;;;4.10;2.20;;;;;;;31.74;38.97;101131.89;1480668;95;21086;-50
2022/06/14 12:28:02;;;;;;;3.08;2.75;;;;;;;31.80;38.54;101143.35;1506815;95;21105;-50
2022/06/14 12:30:29;;;;;;;2.30;2.10;;;;;;;31.83;38.62;101143.05;1511557;93;21080;-50
2022/06/14 12:33:01;;;;;;;2.60;2.30;;;;;;;31.86;38.67;101145.39;1514019;94;21695;-49
2022/06/14 12:35:30;;;;;;;5.37;1.98;;;;;;;31.86;38.67;101133.28;1472290;97;21388;-50
2022/06/14 12:38:07;;;;;;;3.47;2.10;;;;;;;31.88;38.31;101140.70;1472333;97;21111;-49
2022/06/14 12:41:01;;;;;;;2.52;2.22;;;;;;;31.89;37.63;101137.02;1493553;94;21163;-52
2022/06/14 12:43:51;;;;;;;2.42;2.20;;;;;;;31.91;37.42;101137.70;1466651;97;21616;-50
2022/06/14 12:46:23;;;;;;;2.30;2.12;;;;;;;31.95;37.96;101133.70;1477593;95;21114;-50
2022/06/14 12:49:04;;;;;;;2.62;2.10;;;;;;;32.00;38.17;101137.27;1478679;97;21136;-49
2022/06/14 12:51:45;;;;;;;2.02;1.80;;;;;;;32.02;38.01;101137.45;1478309;95;21601;-52